sensor_id;sensor_type;location;lat;lon;timestamp;P1;durP1;ratioP1;P2;durP2;ratioP2
54372;SDS011;69157;53.094;10.016;2023-09-19T00:01:08;1.63;;;0.95;;
54372;SDS011;69157;53.094;10.016;2023-09-19T00:03:36;1.42;;;1.00;;
54372;SDS011;69157;53.094;10.016;2023-09-19T00:06:02;1.42;;;0.93;;
54372;SDS011;69157;53.094;10.016;2023-09-19T00:08:30;4.28;;;1.13;;
54372;SDS011;69157;53.094;10.016;2023-09-19T00:10:56;2.25;;;0.95;;
54372;SDS011;69157;53.094;10.016;2023-09-19T00:13:30;1.65;;;0.90;;
54372;SDS011;69157;53.094;10.016;2023-09-19T00:15:56;1.70;;;0.93;;
54372;SDS011;69157;53.094;10.016;2023-09-19T00:18:24;2.30;;;0.85;;
54372;SDS011;69157;53.094;10.016;2023-09-19T00:23:20;1.67;;;1.15;;
54372;SDS011;69157;53.094;10.016;2023-09-19T00:25:46;2.35;;;1.10;;
54372;SDS011;69157;53.094;10.016;2023-09-19T00:28:13;1.52;;;1.15;;
54372;SDS011;69157;53.094;10.016;2023-09-19T00:30:39;2.25;;;1.10;;
54372;SDS011;69157;53.094;10.016;2023-09-19T00:33:08;2.08;;;1.30;;
54372;SDS011;69157;53.094;10.016;2023-09-19T00:35:36;1.45;;;1.17;;
54372;SDS011;69157;53.094;10.016;2023-09-19T00:38:02;1.75;;;1.17;;
54372;SDS011;69157;53.094;10.016;2023-09-19T00:40:29;1.95;;;0.93;;
54372;SDS011;69157;53.094;10.016;2023-09-19T00:42:58;1.85;;;1.20;;
54372;SDS011;69157;53.094;10.016;2023-09-19T00:45:25;4.33;;;1.43;;
54372;SDS011;69157;53.094;10.016;2023-09-19T00:47:51;2.28;;;1.17;;
54372;SDS011;69157;53.094;10.016;2023-09-19T00:50:18;1.70;;;1.30;;
54372;SDS011;69157;53.094;10.016;2023-09-19T00:52:46;2.63;;;1.45;;
54372;SDS011;69157;53.094;10.016;2023-09-19T00:55:12;1.92;;;1.17;;
54372;SDS011;69157;53.094;10.016;2023-09-19T00:57:41;3.67;;;1.35;;
54372;SDS011;69157;53.094;10.016;2023-09-19T01:00:09;2.17;;;1.25;;
54372;SDS011;69157;53.094;10.016;2023-09-19T01:02:39;1.90;;;1.40;;
54372;SDS011;69157;53.094;10.016;2023-09-19T01:05:07;1.92;;;1.23;;
54372;SDS011;69157;53.094;10.016;2023-09-19T01:07:34;2.72;;;1.67;;
54372;SDS011;69157;53.094;10.016;2023-09-19T01:10:01;2.10;;;1.30;;
54372;SDS011;69157;53.094;10.016;2023-09-19T01:12:33;2.25;;;1.40;;
54372;SDS011;69157;53.094;10.016;2023-09-19T01:17:46;2.67;;;1.50;;
54372;SDS011;69157;53.094;10.016;2023-09-19T01:25:42;2.83;;;1.67;;
54372;SDS011;69157;53.094;10.016;2023-09-19T01:28:36;5.85;;;2.17;;
54372;SDS011;69157;53.094;10.016;2023-09-19T01:31:06;2.15;;;1.50;;
54372;SDS011;69157;53.094;10.016;2023-09-19T01:33:57;2.42;;;1.73;;
54372;SDS011;69157;53.094;10.016;2023-09-19T01:36:32;5.07;;;1.80;;
54372;SDS011;69157;53.094;10.016;2023-09-19T01:39:05;1.75;;;1.45;;
54372;SDS011;69157;53.094;10.016;2023-09-19T01:44:12;3.95;;;1.80;;
54372;SDS011;69157;53.094;10.016;2023-09-19T01:46:41;2.30;;;1.65;;
54372;SDS011;69157;53.094;10.016;2023-09-19T01:54:36;3.70;;;1.98;;
54372;SDS011;69157;53.094;10.016;2023-09-19T01:59:41;2.40;;;1.67;;
54372;SDS011;69157;53.094;10.016;2023-09-19T02:02:09;3.65;;;2.08;;
54372;SDS011;69157;53.094;10.016;2023-09-19T02:04:35;4.43;;;2.03;;
54372;SDS011;69157;53.094;10.016;2023-09-19T02:07:01;4.20;;;2.25;;
54372;SDS011;69157;53.094;10.016;2023-09-19T02:09:30;4.03;;;2.10;;
54372;SDS011;69157;53.094;10.016;2023-09-19T02:11:58;2.92;;;1.92;;
54372;SDS011;69157;53.094;10.016;2023-09-19T02:14:25;3.33;;;1.77;;
54372;SDS011;69157;53.094;10.016;2023-09-19T02:16:54;4.30;;;1.83;;
54372;SDS011;69157;53.094;10.016;2023-09-19T02:19:21;2.58;;;1.77;;
54372;SDS011;69157;53.094;10.016;2023-09-19T02:21:47;3.05;;;2.05;;
54372;SDS011;69157;53.094;10.016;2023-09-19T02:24:14;4.45;;;1.95;;
54372;SDS011;69157;53.094;10.016;2023-09-19T02:26:40;2.45;;;1.80;;
54372;SDS011;69157;53.094;10.016;2023-09-19T02:29:06;3.60;;;2.03;;
54372;SDS011;69157;53.094;10.016;2023-09-19T02:31:33;4.85;;;1.80;;
54372;SDS011;69157;53.094;10.016;2023-09-19T02:33:59;4.10;;;1.98;;
54372;SDS011;69157;53.094;10.016;2023-09-19T02:36:25;5.32;;;2.10;;
54372;SDS011;69157;53.094;10.016;2023-09-19T02:38:51;4.57;;;2.08;;
54372;SDS011;69157;53.094;10.016;2023-09-19T02:41:18;4.45;;;1.83;;
54372;SDS011;69157;53.094;10.016;2023-09-19T02:43:44;5.60;;;1.80;;
54372;SDS011;69157;53.094;10.016;2023-09-19T02:46:10;2.05;;;1.52;;
54372;SDS011;69157;53.094;10.016;2023-09-19T02:48:36;3.75;;;1.75;;
54372;SDS011;69157;53.094;10.016;2023-09-19T02:51:03;3.65;;;1.70;;
54372;SDS011;69157;53.094;10.016;2023-09-19T02:53:30;2.33;;;1.45;;
54372;SDS011;69157;53.094;10.016;2023-09-19T02:55:57;3.08;;;1.50;;
54372;SDS011;69157;53.094;10.016;2023-09-19T02:58:24;3.50;;;1.60;;
54372;SDS011;69157;53.094;10.016;2023-09-19T03:00:50;2.08;;;1.40;;
54372;SDS011;69157;53.094;10.016;2023-09-19T03:03:16;2.92;;;1.70;;
54372;SDS011;69157;53.094;10.016;2023-09-19T03:05:43;4.30;;;1.83;;
54372;SDS011;69157;53.094;10.016;2023-09-19T03:08:15;3.20;;;1.80;;
54372;SDS011;69157;53.094;10.016;2023-09-19T03:10:42;3.70;;;2.00;;
54372;SDS011;69157;53.094;10.016;2023-09-19T03:13:08;3.92;;;1.73;;
54372;SDS011;69157;53.094;10.016;2023-09-19T03:15:35;2.55;;;1.60;;
54372;SDS011;69157;53.094;10.016;2023-09-19T03:18:04;1.90;;;1.52;;
54372;SDS011;69157;53.094;10.016;2023-09-19T03:20:31;2.15;;;1.45;;
54372;SDS011;69157;53.094;10.016;2023-09-19T03:22:57;4.88;;;1.83;;
54372;SDS011;69157;53.094;10.016;2023-09-19T03:25:23;3.88;;;1.77;;
54372;SDS011;69157;53.094;10.016;2023-09-19T03:27:49;2.97;;;1.48;;
54372;SDS011;69157;53.094;10.016;2023-09-19T03:30:16;3.45;;;1.98;;
54372;SDS011;69157;53.094;10.016;2023-09-19T03:32:45;4.25;;;2.13;;
54372;SDS011;69157;53.094;10.016;2023-09-19T03:35:12;2.97;;;1.90;;
54372;SDS011;69157;53.094;10.016;2023-09-19T03:37:39;4.65;;;1.75;;
54372;SDS011;69157;53.094;10.016;2023-09-19T03:40:05;2.55;;;1.70;;
54372;SDS011;69157;53.094;10.016;2023-09-19T03:42:32;1.73;;;1.50;;
54372;SDS011;69157;53.094;10.016;2023-09-19T03:45:01;3.30;;;1.60;;
54372;SDS011;69157;53.094;10.016;2023-09-19T03:47:29;3.65;;;1.63;;
54372;SDS011;69157;53.094;10.016;2023-09-19T03:49:55;5.05;;;1.50;;
54372;SDS011;69157;53.094;10.016;2023-09-19T03:52:21;3.75;;;1.63;;
54372;SDS011;69157;53.094;10.016;2023-09-19T03:54:47;4.55;;;1.30;;
54372;SDS011;69157;53.094;10.016;2023-09-19T03:57:14;3.65;;;1.23;;
54372;SDS011;69157;53.094;10.016;2023-09-19T03:59:45;1.95;;;1.15;;
54372;SDS011;69157;53.094;10.016;2023-09-19T04:02:12;2.17;;;1.20;;
54372;SDS011;69157;53.094;10.016;2023-09-19T04:04:47;4.68;;;1.20;;
54372;SDS011;69157;53.094;10.016;2023-09-19T04:07:13;2.83;;;1.00;;
54372;SDS011;69157;53.094;10.016;2023-09-19T04:09:39;3.83;;;1.25;;
54372;SDS011;69157;53.094;10.016;2023-09-19T04:12:05;1.25;;;0.95;;
54372;SDS011;69157;53.094;10.016;2023-09-19T04:14:36;1.98;;;0.90;;
54372;SDS011;69157;53.094;10.016;2023-09-19T04:17:03;1.52;;;1.00;;
54372;SDS011;69157;53.094;10.016;2023-09-19T04:19:30;5.85;;;1.10;;
54372;SDS011;69157;53.094;10.016;2023-09-19T04:21:56;1.27;;;1.00;;
54372;SDS011;69157;53.094;10.016;2023-09-19T04:24:22;2.40;;;1.10;;
54372;SDS011;69157;53.094;10.016;2023-09-19T04:26:48;3.33;;;1.00;;
54372;SDS011;69157;53.094;10.016;2023-09-19T04:29:14;1.73;;;1.00;;
54372;SDS011;69157;53.094;10.016;2023-09-19T04:31:40;6.07;;;1.20;;
54372;SDS011;69157;53.094;10.016;2023-09-19T04:34:09;4.80;;;1.10;;
54372;SDS011;69157;53.094;10.016;2023-09-19T04:36:35;2.92;;;1.25;;
54372;SDS011;69157;53.094;10.016;2023-09-19T04:39:04;3.92;;;1.15;;
54372;SDS011;69157;53.094;10.016;2023-09-19T04:41:30;1.85;;;0.98;;
54372;SDS011;69157;53.094;10.016;2023-09-19T04:43:56;5.43;;;1.50;;
54372;SDS011;69157;53.094;10.016;2023-09-19T04:46:23;4.28;;;1.38;;
54372;SDS011;69157;53.094;10.016;2023-09-19T04:48:49;4.43;;;1.15;;
54372;SDS011;69157;53.094;10.016;2023-09-19T04:51:15;4.43;;;1.15;;
54372;SDS011;69157;53.094;10.016;2023-09-19T04:53:43;7.72;;;1.10;;
54372;SDS011;69157;53.094;10.016;2023-09-19T04:56:10;1.10;;;1.00;;
54372;SDS011;69157;53.094;10.016;2023-09-19T04:58:36;3.72;;;1.40;;
54372;SDS011;69157;53.094;10.016;2023-09-19T05:01:02;2.38;;;1.35;;
54372;SDS011;69157;53.094;10.016;2023-09-19T05:03:28;4.15;;;1.38;;
54372;SDS011;69157;53.094;10.016;2023-09-19T05:05:54;3.65;;;1.33;;
54372;SDS011;69157;53.094;10.016;2023-09-19T05:08:20;1.95;;;1.30;;
54372;SDS011;69157;53.094;10.016;2023-09-19T05:10:47;2.60;;;1.55;;
54372;SDS011;69157;53.094;10.016;2023-09-19T05:13:14;1.92;;;1.20;;
54372;SDS011;69157;53.094;10.016;2023-09-19T05:15:40;2.15;;;1.30;;
54372;SDS011;69157;53.094;10.016;2023-09-19T05:18:06;3.45;;;1.20;;
54372;SDS011;69157;53.094;10.016;2023-09-19T05:20:32;2.75;;;1.48;;
54372;SDS011;69157;53.094;10.016;2023-09-19T05:23:01;4.45;;;1.45;;
54372;SDS011;69157;53.094;10.016;2023-09-19T05:25:31;4.55;;;1.83;;
54372;SDS011;69157;53.094;10.016;2023-09-19T05:27:58;4.93;;;1.42;;
54372;SDS011;69157;53.094;10.016;2023-09-19T05:30:25;4.57;;;1.60;;
54372;SDS011;69157;53.094;10.016;2023-09-19T05:32:52;5.57;;;1.40;;
54372;SDS011;69157;53.094;10.016;2023-09-19T05:35:19;2.00;;;1.58;;
54372;SDS011;69157;53.094;10.016;2023-09-19T05:37:47;4.15;;;1.67;;
54372;SDS011;69157;53.094;10.016;2023-09-19T05:40:15;4.65;;;1.48;;
54372;SDS011;69157;53.094;10.016;2023-09-19T05:42:42;4.07;;;1.88;;
54372;SDS011;69157;53.094;10.016;2023-09-19T05:45:09;2.80;;;1.40;;
54372;SDS011;69157;53.094;10.016;2023-09-19T05:47:41;2.72;;;1.42;;
54372;SDS011;69157;53.094;10.016;2023-09-19T05:50:08;3.47;;;1.45;;
54372;SDS011;69157;53.094;10.016;2023-09-19T05:52:38;2.97;;;1.30;;
54372;SDS011;69157;53.094;10.016;2023-09-19T05:55:04;5.78;;;1.50;;
54372;SDS011;69157;53.094;10.016;2023-09-19T05:57:32;2.78;;;1.40;;
54372;SDS011;69157;53.094;10.016;2023-09-19T05:59:58;2.45;;;1.20;;
54372;SDS011;69157;53.094;10.016;2023-09-19T06:02:24;3.08;;;1.20;;
54372;SDS011;69157;53.094;10.016;2023-09-19T06:07:23;5.65;;;1.20;;
54372;SDS011;69157;53.094;10.016;2023-09-19T06:12:18;1.92;;;1.40;;
54372;SDS011;69157;53.094;10.016;2023-09-19T06:14:44;3.13;;;1.38;;
54372;SDS011;69157;53.094;10.016;2023-09-19T06:17:11;2.80;;;1.17;;
54372;SDS011;69157;53.094;10.016;2023-09-19T06:19:37;2.67;;;1.10;;
54372;SDS011;69157;53.094;10.016;2023-09-19T06:22:03;2.33;;;1.23;;
54372;SDS011;69157;53.094;10.016;2023-09-19T06:24:29;4.93;;;1.40;;
54372;SDS011;69157;53.094;10.016;2023-09-19T06:26:55;3.97;;;1.40;;
54372;SDS011;69157;53.094;10.016;2023-09-19T06:29:22;3.67;;;1.30;;
54372;SDS011;69157;53.094;10.016;2023-09-19T06:31:48;3.53;;;1.30;;
54372;SDS011;69157;53.094;10.016;2023-09-19T06:34:14;2.42;;;1.50;;
54372;SDS011;69157;53.094;10.016;2023-09-19T06:36:41;2.72;;;1.30;;
54372;SDS011;69157;53.094;10.016;2023-09-19T06:39:08;5.63;;;1.65;;
54372;SDS011;69157;53.094;10.016;2023-09-19T06:41:36;2.85;;;1.60;;
54372;SDS011;69157;53.094;10.016;2023-09-19T06:44:04;2.85;;;1.20;;
54372;SDS011;69157;53.094;10.016;2023-09-19T06:46:30;3.40;;;1.60;;
54372;SDS011;69157;53.094;10.016;2023-09-19T06:49:00;4.85;;;1.60;;
54372;SDS011;69157;53.094;10.016;2023-09-19T06:51:32;2.67;;;1.55;;
54372;SDS011;69157;53.094;10.016;2023-09-19T06:53:59;3.78;;;1.73;;
54372;SDS011;69157;53.094;10.016;2023-09-19T06:56:26;8.30;;;2.00;;
54372;SDS011;69157;53.094;10.016;2023-09-19T06:58:52;2.42;;;1.65;;
54372;SDS011;69157;53.094;10.016;2023-09-19T07:01:18;3.33;;;1.67;;
54372;SDS011;69157;53.094;10.016;2023-09-19T07:03:44;3.10;;;1.30;;
54372;SDS011;69157;53.094;10.016;2023-09-19T07:06:11;4.18;;;1.52;;
54372;SDS011;69157;53.094;10.016;2023-09-19T07:08:37;5.55;;;1.90;;
54372;SDS011;69157;53.094;10.016;2023-09-19T07:11:03;3.05;;;1.60;;
54372;SDS011;69157;53.094;10.016;2023-09-19T07:13:31;2.78;;;1.63;;
54372;SDS011;69157;53.094;10.016;2023-09-19T07:15:58;2.47;;;1.40;;
54372;SDS011;69157;53.094;10.016;2023-09-19T07:18:24;3.20;;;1.58;;
54372;SDS011;69157;53.094;10.016;2023-09-19T07:20:51;4.30;;;1.70;;
54372;SDS011;69157;53.094;10.016;2023-09-19T07:23:20;2.75;;;1.55;;
54372;SDS011;69157;53.094;10.016;2023-09-19T07:25:49;8.10;;;1.88;;
54372;SDS011;69157;53.094;10.016;2023-09-19T07:28:15;2.10;;;1.48;;
54372;SDS011;69157;53.094;10.016;2023-09-19T07:30:41;3.03;;;1.50;;
54372;SDS011;69157;53.094;10.016;2023-09-19T07:33:07;6.78;;;2.20;;
54372;SDS011;69157;53.094;10.016;2023-09-19T07:35:36;2.97;;;1.38;;
54372;SDS011;69157;53.094;10.016;2023-09-19T07:38:06;3.63;;;1.70;;
54372;SDS011;69157;53.094;10.016;2023-09-19T07:40:32;4.30;;;1.40;;
54372;SDS011;69157;53.094;10.016;2023-09-19T07:42:59;4.40;;;1.63;;
54372;SDS011;69157;53.094;10.016;2023-09-19T07:47:55;5.25;;;1.40;;
54372;SDS011;69157;53.094;10.016;2023-09-19T07:50:21;5.40;;;1.60;;
54372;SDS011;69157;53.094;10.016;2023-09-19T07:52:48;3.22;;;1.40;;
54372;SDS011;69157;53.094;10.016;2023-09-19T07:55:17;3.27;;;0.90;;
54372;SDS011;69157;53.094;10.016;2023-09-19T07:57:45;4.57;;;1.27;;
54372;SDS011;69157;53.094;10.016;2023-09-19T08:00:11;4.20;;;1.25;;
54372;SDS011;69157;53.094;10.016;2023-09-19T08:02:41;5.82;;;1.23;;
54372;SDS011;69157;53.094;10.016;2023-09-19T08:05:08;1.47;;;1.03;;
54372;SDS011;69157;53.094;10.016;2023-09-19T08:07:41;2.25;;;1.00;;
54372;SDS011;69157;53.094;10.016;2023-09-19T08:10:07;1.98;;;1.05;;
54372;SDS011;69157;53.094;10.016;2023-09-19T08:12:38;3.30;;;0.82;;
54372;SDS011;69157;53.094;10.016;2023-09-19T08:15:11;4.32;;;0.88;;
54372;SDS011;69157;53.094;10.016;2023-09-19T08:17:37;1.88;;;0.75;;
54372;SDS011;69157;53.094;10.016;2023-09-19T08:20:03;2.90;;;0.93;;
54372;SDS011;69157;53.094;10.016;2023-09-19T08:22:30;2.92;;;0.80;;
54372;SDS011;69157;53.094;10.016;2023-09-19T08:24:57;3.53;;;1.10;;
54372;SDS011;69157;53.094;10.016;2023-09-19T08:27:23;3.72;;;0.80;;
54372;SDS011;69157;53.094;10.016;2023-09-19T08:29:52;2.88;;;0.90;;
54372;SDS011;69157;53.094;10.016;2023-09-19T08:32:18;1.80;;;0.80;;
54372;SDS011;69157;53.094;10.016;2023-09-19T08:34:49;3.90;;;1.10;;
54372;SDS011;69157;53.094;10.016;2023-09-19T08:37:15;2.10;;;1.15;;
54372;SDS011;69157;53.094;10.016;2023-09-19T08:39:43;1.52;;;0.80;;
54372;SDS011;69157;53.094;10.016;2023-09-19T08:42:09;3.63;;;0.80;;
54372;SDS011;69157;53.094;10.016;2023-09-19T08:44:39;4.80;;;1.00;;
54372;SDS011;69157;53.094;10.016;2023-09-19T08:47:11;2.35;;;1.27;;
54372;SDS011;69157;53.094;10.016;2023-09-19T08:52:27;2.28;;;1.05;;
54372;SDS011;69157;53.094;10.016;2023-09-19T08:54:55;2.08;;;0.70;;
54372;SDS011;69157;53.094;10.016;2023-09-19T08:57:28;3.17;;;0.75;;
54372;SDS011;69157;53.094;10.016;2023-09-19T08:59:55;0.63;;;0.63;;
54372;SDS011;69157;53.094;10.016;2023-09-19T09:02:22;4.75;;;1.10;;
54372;SDS011;69157;53.094;10.016;2023-09-19T09:04:48;2.28;;;0.70;;
54372;SDS011;69157;53.094;10.016;2023-09-19T09:07:15;4.65;;;0.77;;
54372;SDS011;69157;53.094;10.016;2023-09-19T09:09:44;3.60;;;0.90;;
54372;SDS011;69157;53.094;10.016;2023-09-19T09:12:13;2.75;;;0.90;;
54372;SDS011;69157;53.094;10.016;2023-09-19T09:14:40;2.13;;;1.02;;
54372;SDS011;69157;53.094;10.016;2023-09-19T09:17:10;2.72;;;0.70;;
54372;SDS011;69157;53.094;10.016;2023-09-19T09:19:37;3.38;;;0.70;;
54372;SDS011;69157;53.094;10.016;2023-09-19T09:22:06;0.95;;;0.65;;
54372;SDS011;69157;53.094;10.016;2023-09-19T09:24:33;2.50;;;0.77;;
54372;SDS011;69157;53.094;10.016;2023-09-19T09:27:02;4.78;;;0.80;;
54372;SDS011;69157;53.094;10.016;2023-09-19T09:29:43;1.20;;;0.68;;
54372;SDS011;69157;53.094;10.016;2023-09-19T09:32:28;1.38;;;0.50;;
54372;SDS011;69157;53.094;10.016;2023-09-19T09:34:55;4.93;;;0.80;;
54372;SDS011;69157;53.094;10.016;2023-09-19T09:37:22;4.50;;;0.90;;
54372;SDS011;69157;53.094;10.016;2023-09-19T09:39:59;3.78;;;0.80;;
54372;SDS011;69157;53.094;10.016;2023-09-19T09:42:44;5.20;;;0.90;;
54372;SDS011;69157;53.094;10.016;2023-09-19T09:45:18;3.92;;;1.00;;
54372;SDS011;69157;53.094;10.016;2023-09-19T09:47:53;0.60;;;0.60;;
54372;SDS011;69157;53.094;10.016;2023-09-19T09:50:29;1.65;;;0.80;;
54372;SDS011;69157;53.094;10.016;2023-09-19T09:53:28;3.38;;;0.60;;
54372;SDS011;69157;53.094;10.016;2023-09-19T09:56:05;3.83;;;1.05;;
54372;SDS011;69157;53.094;10.016;2023-09-19T09:58:31;4.32;;;0.73;;
54372;SDS011;69157;53.094;10.016;2023-09-19T10:00:58;1.23;;;0.60;;
54372;SDS011;69157;53.094;10.016;2023-09-19T10:03:58;0.95;;;0.50;;
54372;SDS011;69157;53.094;10.016;2023-09-19T10:06:19;1.27;;;0.60;;
54372;SDS011;69157;53.094;10.016;2023-09-19T10:12:09;1.60;;;0.80;;
54372;SDS011;69157;53.094;10.016;2023-09-19T10:14:30;1.17;;;0.60;;
54372;SDS011;69157;53.094;10.016;2023-09-19T10:16:59;1.48;;;0.80;;
54372;SDS011;69157;53.094;10.016;2023-09-19T10:19:30;2.93;;;0.70;;
54372;SDS011;69157;53.094;10.016;2023-09-19T10:21:59;1.13;;;0.57;;
54372;SDS011;69157;53.094;10.016;2023-09-19T10:24:27;2.33;;;0.63;;
54372;SDS011;69157;53.094;10.016;2023-09-19T10:26:54;2.70;;;0.63;;
54372;SDS011;69157;53.094;10.016;2023-09-19T10:29:21;2.53;;;0.60;;
54372;SDS011;69157;53.094;10.016;2023-09-19T10:31:47;4.30;;;0.93;;
54372;SDS011;69157;53.094;10.016;2023-09-19T10:34:14;2.15;;;0.80;;
54372;SDS011;69157;53.094;10.016;2023-09-19T10:36:42;1.05;;;0.70;;
54372;SDS011;69157;53.094;10.016;2023-09-19T10:39:10;2.67;;;0.70;;
54372;SDS011;69157;53.094;10.016;2023-09-19T10:41:37;3.67;;;0.80;;
54372;SDS011;69157;53.094;10.016;2023-09-19T10:44:04;2.05;;;0.73;;
54372;SDS011;69157;53.094;10.016;2023-09-19T10:46:31;1.48;;;0.70;;
54372;SDS011;69157;53.094;10.016;2023-09-19T10:49:01;1.08;;;0.50;;
54372;SDS011;69157;53.094;10.016;2023-09-19T10:51:29;1.70;;;0.60;;
54372;SDS011;69157;53.094;10.016;2023-09-19T10:59:04;3.22;;;0.68;;
54372;SDS011;69157;53.094;10.016;2023-09-19T11:07:08;4.43;;;0.88;;
54372;SDS011;69157;53.094;10.016;2023-09-19T11:14:50;0.85;;;0.63;;
54372;SDS011;69157;53.094;10.016;2023-09-19T11:30:38;1.25;;;0.60;;
54372;SDS011;69157;53.094;10.016;2023-09-19T11:36:05;2.05;;;1.02;;
54372;SDS011;69157;53.094;10.016;2023-09-19T11:46:26;2.10;;;0.73;;
54372;SDS011;69157;53.094;10.016;2023-09-19T11:48:53;2.38;;;0.77;;
54372;SDS011;69157;53.094;10.016;2023-09-19T11:51:20;3.50;;;0.90;;
54372;SDS011;69157;53.094;10.016;2023-09-19T11:53:53;3.20;;;0.90;;
54372;SDS011;69157;53.094;10.016;2023-09-19T11:56:23;1.63;;;0.85;;
54372;SDS011;69157;53.094;10.016;2023-09-19T11:58:51;1.65;;;0.85;;
54372;SDS011;69157;53.094;10.016;2023-09-19T12:01:21;1.50;;;1.20;;
54372;SDS011;69157;53.094;10.016;2023-09-19T12:03:52;3.97;;;1.00;;
54372;SDS011;69157;53.094;10.016;2023-09-19T12:06:18;2.05;;;0.90;;
54372;SDS011;69157;53.094;10.016;2023-09-19T12:08:46;3.35;;;1.13;;
54372;SDS011;69157;53.094;10.016;2023-09-19T12:11:14;1.38;;;0.90;;
54372;SDS011;69157;53.094;10.016;2023-09-19T12:13:41;1.73;;;0.70;;
54372;SDS011;69157;53.094;10.016;2023-09-19T12:16:13;4.90;;;0.90;;
54372;SDS011;69157;53.094;10.016;2023-09-19T12:18:40;2.35;;;0.90;;
54372;SDS011;69157;53.094;10.016;2023-09-19T12:21:20;3.63;;;1.17;;
54372;SDS011;69157;53.094;10.016;2023-09-19T12:23:57;4.28;;;1.00;;
54372;SDS011;69157;53.094;10.016;2023-09-19T12:26:24;2.20;;;0.70;;
54372;SDS011;69157;53.094;10.016;2023-09-19T12:28:54;2.83;;;1.13;;
54372;SDS011;69157;53.094;10.016;2023-09-19T12:31:21;2.83;;;1.00;;
54372;SDS011;69157;53.094;10.016;2023-09-19T12:33:52;2.60;;;0.85;;
54372;SDS011;69157;53.094;10.016;2023-09-19T12:36:22;2.08;;;0.70;;
54372;SDS011;69157;53.094;10.016;2023-09-19T12:38:50;2.55;;;1.00;;
54372;SDS011;69157;53.094;10.016;2023-09-19T12:41:18;3.03;;;0.80;;
54372;SDS011;69157;53.094;10.016;2023-09-19T12:43:46;2.78;;;0.95;;
54372;SDS011;69157;53.094;10.016;2023-09-19T12:46:12;2.15;;;0.90;;
54372;SDS011;69157;53.094;10.016;2023-09-19T12:48:41;2.50;;;0.90;;
54372;SDS011;69157;53.094;10.016;2023-09-19T12:51:12;3.28;;;0.75;;
54372;SDS011;69157;53.094;10.016;2023-09-19T12:53:38;1.48;;;0.65;;
54372;SDS011;69157;53.094;10.016;2023-09-19T12:56:07;3.65;;;0.80;;
54372;SDS011;69157;53.094;10.016;2023-09-19T12:58:35;4.03;;;0.90;;
54372;SDS011;69157;53.094;10.016;2023-09-19T13:01:14;1.13;;;0.70;;
54372;SDS011;69157;53.094;10.016;2023-09-19T13:03:41;3.17;;;0.95;;
54372;SDS011;69157;53.094;10.016;2023-09-19T13:06:07;3.42;;;0.60;;
54372;SDS011;69157;53.094;10.016;2023-09-19T13:08:35;1.52;;;0.80;;
54372;SDS011;69157;53.094;10.016;2023-09-19T13:16:20;1.50;;;0.90;;
54372;SDS011;69157;53.094;10.016;2023-09-19T13:21:26;1.70;;;0.82;;
54372;SDS011;69157;53.094;10.016;2023-09-19T13:23:54;1.40;;;0.77;;
54372;SDS011;69157;53.094;10.016;2023-09-19T13:26:27;4.57;;;1.20;;
54372;SDS011;69157;53.094;10.016;2023-09-19T13:28:54;2.80;;;1.10;;
54372;SDS011;69157;53.094;10.016;2023-09-19T13:31:20;2.63;;;1.13;;
54372;SDS011;69157;53.094;10.016;2023-09-19T13:33:47;2.33;;;1.23;;
54372;SDS011;69157;53.094;10.016;2023-09-19T13:36:14;1.63;;;0.90;;
54372;SDS011;69157;53.094;10.016;2023-09-19T13:38:40;2.33;;;1.00;;
54372;SDS011;69157;53.094;10.016;2023-09-19T13:41:11;3.17;;;1.17;;
54372;SDS011;69157;53.094;10.016;2023-09-19T13:43:37;4.97;;;1.10;;
54372;SDS011;69157;53.094;10.016;2023-09-19T13:46:04;3.58;;;1.40;;
54372;SDS011;69157;53.094;10.016;2023-09-19T13:48:32;4.05;;;1.40;;
54372;SDS011;69157;53.094;10.016;2023-09-19T13:51:01;5.75;;;1.55;;
54372;SDS011;69157;53.094;10.016;2023-09-19T13:53:27;2.33;;;1.25;;
54372;SDS011;69157;53.094;10.016;2023-09-19T13:55:53;2.40;;;1.42;;
54372;SDS011;69157;53.094;10.016;2023-09-19T13:58:19;2.58;;;1.30;;
54372;SDS011;69157;53.094;10.016;2023-09-19T14:00:47;6.22;;;2.05;;
54372;SDS011;69157;53.094;10.016;2023-09-19T14:03:14;5.15;;;1.77;;
54372;SDS011;69157;53.094;10.016;2023-09-19T14:05:40;4.07;;;1.40;;
54372;SDS011;69157;53.094;10.016;2023-09-19T14:08:07;4.00;;;1.30;;
54372;SDS011;69157;53.094;10.016;2023-09-19T14:10:34;4.78;;;1.50;;
54372;SDS011;69157;53.094;10.016;2023-09-19T14:13:00;2.50;;;1.33;;
54372;SDS011;69157;53.094;10.016;2023-09-19T14:15:27;1.42;;;1.13;;
54372;SDS011;69157;53.094;10.016;2023-09-19T14:17:57;4.43;;;1.30;;
54372;SDS011;69157;53.094;10.016;2023-09-19T14:20:24;5.03;;;1.67;;
54372;SDS011;69157;53.094;10.016;2023-09-19T14:22:51;2.42;;;1.40;;
54372;SDS011;69157;53.094;10.016;2023-09-19T14:25:17;3.03;;;1.52;;
54372;SDS011;69157;53.094;10.016;2023-09-19T14:27:43;3.38;;;1.50;;
54372;SDS011;69157;53.094;10.016;2023-09-19T14:30:10;2.83;;;1.48;;
54372;SDS011;69157;53.094;10.016;2023-09-19T14:32:36;1.55;;;1.40;;
54372;SDS011;69157;53.094;10.016;2023-09-19T14:35:03;4.20;;;1.40;;
54372;SDS011;69157;53.094;10.016;2023-09-19T14:37:29;3.28;;;1.40;;
54372;SDS011;69157;53.094;10.016;2023-09-19T14:39:56;3.75;;;1.45;;
54372;SDS011;69157;53.094;10.016;2023-09-19T14:42:22;5.10;;;1.30;;
54372;SDS011;69157;53.094;10.016;2023-09-19T14:44:48;2.80;;;1.77;;
54372;SDS011;69157;53.094;10.016;2023-09-19T14:47:15;2.90;;;1.35;;
54372;SDS011;69157;53.094;10.016;2023-09-19T14:49:41;3.13;;;1.42;;
54372;SDS011;69157;53.094;10.016;2023-09-19T14:52:08;2.95;;;1.30;;
54372;SDS011;69157;53.094;10.016;2023-09-19T14:54:35;3.22;;;1.25;;
54372;SDS011;69157;53.094;10.016;2023-09-19T14:57:03;3.15;;;1.40;;
54372;SDS011;69157;53.094;10.016;2023-09-19T14:59:32;4.22;;;1.50;;
54372;SDS011;69157;53.094;10.016;2023-09-19T15:02:02;2.45;;;1.30;;
54372;SDS011;69157;53.094;10.016;2023-09-19T15:04:28;2.35;;;1.13;;
54372;SDS011;69157;53.094;10.016;2023-09-19T15:06:54;6.03;;;1.30;;
54372;SDS011;69157;53.094;10.016;2023-09-19T15:09:21;5.75;;;1.50;;
54372;SDS011;69157;53.094;10.016;2023-09-19T15:11:51;5.25;;;1.17;;
54372;SDS011;69157;53.094;10.016;2023-09-19T15:14:17;2.60;;;1.00;;
54372;SDS011;69157;53.094;10.016;2023-09-19T15:16:43;2.80;;;0.90;;
54372;SDS011;69157;53.094;10.016;2023-09-19T15:19:09;1.95;;;1.10;;
54372;SDS011;69157;53.094;10.016;2023-09-19T15:21:35;3.63;;;1.25;;
54372;SDS011;69157;53.094;10.016;2023-09-19T15:24:02;3.53;;;0.85;;
54372;SDS011;69157;53.094;10.016;2023-09-19T15:26:29;4.70;;;1.10;;
54372;SDS011;69157;53.094;10.016;2023-09-19T15:28:55;2.45;;;1.00;;
54372;SDS011;69157;53.094;10.016;2023-09-19T15:31:22;2.28;;;0.85;;
54372;SDS011;69157;53.094;10.016;2023-09-19T15:33:48;2.25;;;0.90;;
54372;SDS011;69157;53.094;10.016;2023-09-19T15:36:14;2.38;;;0.90;;
54372;SDS011;69157;53.094;10.016;2023-09-19T15:41:18;2.03;;;0.82;;
54372;SDS011;69157;53.094;10.016;2023-09-19T15:43:45;6.68;;;1.20;;
54372;SDS011;69157;53.094;10.016;2023-09-19T15:46:11;2.45;;;0.95;;
54372;SDS011;69157;53.094;10.016;2023-09-19T15:48:38;2.28;;;1.00;;
54372;SDS011;69157;53.094;10.016;2023-09-19T15:51:05;2.53;;;0.80;;
54372;SDS011;69157;53.094;10.016;2023-09-19T15:53:53;2.28;;;0.82;;
54372;SDS011;69157;53.094;10.016;2023-09-19T15:56:18;3.80;;;1.00;;
54372;SDS011;69157;53.094;10.016;2023-09-19T15:58:54;1.23;;;1.00;;
54372;SDS011;69157;53.094;10.016;2023-09-19T16:01:21;1.88;;;0.77;;
54372;SDS011;69157;53.094;10.016;2023-09-19T16:03:51;1.85;;;0.70;;